Flight Track Log - Related Links

Times and Time Zones

All times are in EDT time to prevent confusion due to time zone crossing. See the EJA122 flight status page for this flight to view local times or setup timezone preferences in your user account.

Time Position Orientation Groundspeed Altitude Reporting Facility
EDT Latitude Longitude Course Direction KTS MPH feet Rate Location/Type
Fri 11:23:22 AM 39.0833 -84.4167 207° Southwest 163 188 1,100  Level Cincinnati TRACON
Fri 11:24:34 AM 39.0333 -84.4500 207° Southwest 218 251 2,500 1,136 Climbing Cincinnati TRACON
Fri 11:25:34 AM 38.9667 -84.4833 201° Southwest 258 297 3,600 1,947 Climbing Cincinnati TRACON
Fri 11:26:28 AM 38.9500 -84.5500 252° West 263 303 6,200 2,753 Climbing Cincinnati TRACON
Fri 11:26:59 AM 38.9786 -84.5900 313° West 266 306 7,500 2,387 Climbing Indianapolis Center
Fri 11:28:01 AM 39.0303 -84.6539 316° Northwest 255 293 9,900 2,177 Climbing Indianapolis Center
Fri 11:29:03 AM 39.0853 -84.7211 317° Northwest 265 305 12,000 1,984 Climbing Indianapolis Center
Fri 11:30:05 AM 39.1447 -84.7844 320° Northwest 272 313 14,000 1,694 Climbing Indianapolis Center
Fri 11:31:07 AM 39.2147 -84.8408 328° Northwest 289 333 15,500 1,452 Climbing Indianapolis Center
Fri 11:32:09 AM 39.2939 -84.8942 332° Northwest 322 371 17,000 1,403 Climbing Indianapolis Center
Fri 11:33:11 AM 39.3839 -84.9389 339° North 344 396 18,400 1,548 Climbing Indianapolis Center
Fri 11:34:13 AM 39.4947 -84.9914 340° North 354 407 20,200 1,597 Climbing Indianapolis Center
Fri 11:35:15 AM 39.5889 -85.0322 342° North 358 412 21,700 1,355 Climbing Indianapolis Center
Fri 11:36:17 AM 39.6831 -85.0769 340° North 361 415 23,000 1,113 Climbing Indianapolis Center
Fri 11:37:19 AM 39.7797 -85.1231 340° North 369 425 24,000 484 Climbing Indianapolis Center
Fri 11:38:21 AM 39.8806 -85.1711 340° North 383 441 24,000  Level Indianapolis Center
Fri 11:39:23 AM 40.0111 -85.2339 340° North 414 476 24,000 339 Level Indianapolis Center
Fri 11:40:25 AM 40.1114 -85.3111 330° Northwest 420 483 24,700 780 Climbing Indianapolis Center
Fri 11:41:26 AM 40.2047 -85.3931 326° Northwest 409 471 25,600 927 Climbing Indianapolis Center
Fri 11:42:28 AM 40.2969 -85.4750 326° Northwest 404 465 26,600 968 Climbing Indianapolis Center
Fri 11:43:30 AM 40.3881 -85.5561 326° Northwest 400 460 27,600 973 Climbing Indianapolis Center
Fri 11:44:19 AM 40.4589 -85.6194 326° Northwest 398 458 28,400 1,081 Climbing Chicago Center
Fri 11:45:21 AM 40.5661 -85.7156 326° Northwest 394 453 29,600 1,065 Climbing Chicago Center
Fri 11:46:23 AM 40.6561 -85.7972 325° Northwest 394 453 30,600 1,016 Climbing Chicago Center
Fri 11:47:25 AM 40.7508 -85.8864 325° Northwest 392 451 31,700 976 Climbing Chicago Center
Fri 11:48:26 AM 40.8400 -85.9661 326° Northwest 390 449 32,600 927 Climbing Chicago Center
Fri 11:49:28 AM 40.9275 -86.0478 325° Northwest 385 443 33,600 677 Climbing Chicago Center
Fri 11:50:30 AM 41.0142 -86.1281 325° Northwest 380 437 34,000 194 Climbing Chicago Center
Fri 11:51:32 AM 41.1058 -86.2117 326° Northwest 395 455 34,000  Level Chicago Center
Fri 11:52:34 AM 41.2014 -86.3011 325° Northwest 414 476 34,000  Level Chicago Center
Fri 11:53:36 AM 41.2967 -86.3906 325° Northwest 418 481 34,000  Level Chicago Center
Fri 11:54:38 AM 41.4158 -86.5008 325° Northwest 431 496 34,000  Level Chicago Center
Fri 11:55:40 AM 41.5161 -86.5964 325° Northwest 440 506 34,000  Level Chicago Center
Fri 11:56:42 AM 41.6172 -86.6906 325° Northwest 443 510 34,000  Level Chicago Center
Fri 11:57:44 AM 41.7172 -86.7833 325° Northwest 439 505 34,000  Level Chicago Center
Fri 11:58:46 AM 41.8167 -86.8772 325° Northwest 441 507 34,000  Level Chicago Center
Fri 11:59:48 AM 41.9383 -86.9931 325° Northwest 446 513 34,000  Level Chicago Center
Fri 12:00:50 PM 42.0386 -87.0908 324° Northwest 446 513 34,000  Level Chicago Center
Fri 12:01:52 PM 42.1364 -87.1814 326° Northwest 436 502 34,000  Level Chicago Center
Fri 12:02:54 PM 42.2364 -87.2781 324° Northwest 443 510 34,000  Level Chicago Center
Fri 12:03:56 PM 42.3375 -87.3764 324° Northwest 450 518 34,000  Level Chicago Center
Fri 12:04:58 PM 42.4586 -87.4931 325° Northwest 450 518 34,000  Level Chicago Center
Fri 12:06:00 PM 42.5578 -87.5906 324° Northwest 446 513 34,000  Level Chicago Center
Fri 12:07:02 PM 42.6608 -87.6914 324° Northwest 446 513 34,000  Level Chicago Center
Fri 12:08:04 PM 42.7617 -87.7911 324° Northwest 449 517 34,000  Level Chicago Center
Fri 12:09:06 PM 42.8597 -87.8869 324° Northwest 435 501 34,000  Level Chicago Center
Fri 12:10:08 PM 42.9567 -87.9833 324° Northwest 429 494 34,000  Level Chicago Center
Fri 12:11:10 PM 43.0706 -88.0975 324° Northwest 433 498 34,000  Level Chicago Center
Fri 12:12:12 PM 43.1686 -88.1956 324° Northwest 434 499 34,000  Level Chicago Center
Fri 12:13:14 PM 43.2672 -88.2953 324° Northwest 438 504 34,000  Level Chicago Center
Fri 12:14:16 PM 43.3647 -88.3922 324° Northwest 433 498 34,000  Level Chicago Center
Fri 12:15:18 PM 43.4825 -88.5122 324° Northwest 450 518 34,000  Level Chicago Center
Fri 12:16:20 PM 43.5706 -88.6019 324° Northwest 438 504 34,000  Level Chicago Center
Fri 12:17:22 PM 43.6617 -88.6961 323° Northwest 419 482 34,000  Level Chicago Center
Fri 12:18:25 PM 43.7542 -88.7911 323° Northwest 414 476 34,000  Level Chicago Center
Fri 12:19:27 PM 43.8594 -88.8994 323° Northwest 406 467 34,000  Level Chicago Center
Fri 12:20:29 PM 43.9528 -88.9950 324° Northwest 415 478 34,000  Level Chicago Center
Fri 12:21:31 PM 44.0453 -89.0908 323° Northwest 415 478 34,000  Level Chicago Center
Fri 12:22:33 PM 44.1386 -89.1892 323° Northwest 419 482 34,000  Level Chicago Center
Fri 12:23:35 PM 44.2328 -89.2875 323° Northwest 423 487 34,000  Level Chicago Center
Fri 12:24:37 PM 44.3425 -89.4031 323° Northwest 423 487 34,000  Level Chicago Center
Fri 12:25:39 PM 44.4364 -89.5008 323° Northwest 422 486 34,000  Level Chicago Center
Fri 12:26:41 PM 44.5292 -89.6003 323° Northwest 420 483 34,000  Level Chicago Center
Fri 12:27:43 PM 44.6225 -89.6986 323° Northwest 420 483 34,000  Level Chicago Center
Fri 12:28:45 PM 44.7139 -89.7975 322° Northwest 414 476 34,000  Level Chicago Center
Fri 12:29:47 PM 44.8208 -89.9119 323° Northwest 414 476 34,000  Level Chicago Center
Fri 12:30:50 PM 44.9119 -90.0117 322° Northwest 414 476 34,000  Level Chicago Center
Fri 12:31:52 PM 45.0042 -90.1092 323° Northwest 413 475 34,000  Level Chicago Center
Fri 12:33:21 PM 45.1233 -90.2414 322° Northwest 411 473 34,000  Level Minneapolis Center
Fri 12:34:23 PM 45.2325 -90.3603 323° Northwest 410 472 34,000  Level Minneapolis Center
Fri 12:35:25 PM 45.3225 -90.4600 322° Northwest 409 471 34,000  Level Minneapolis Center
Fri 12:36:27 PM 45.4114 -90.5575 322° Northwest 404 465 34,000 -532 Level Minneapolis Center
Fri 12:37:29 PM 45.5003 -90.6583 322° Northwest 406 467 32,900 -1,488 Descending Minneapolis Center
Fri 12:38:32 PM 45.5903 -90.7553 323° Northwest 405 466 30,900 -1,872 Descending Minneapolis Center
Fri 12:39:34 PM 45.6767 -90.8531 322° Northwest 397 457 29,000 -2,081 Descending Minneapolis Center
Fri 12:40:36 PM 45.7875 -90.9772 322° Northwest 418 481 26,600 -2,177 Descending Minneapolis Center
Fri 12:41:38 PM 45.8797 -91.0814 322° Northwest 420 483 24,500 -1,258 Descending Minneapolis Center
Fri 12:42:40 PM 45.9711 -91.1844 322° Northwest 418 481 24,000 -1,306 Descending Minneapolis Center
Fri 12:43:42 PM 46.0586 -91.2856 321° Northwest 408 470 21,800 -2,161 Descending Minneapolis Center
Fri 12:45:46 PM 46.2289 -91.4783 322° Northwest 386 444 17,300 -2,355 Descending Minneapolis Center
Fri 12:46:48 PM 46.3264 -91.5842 323° Northwest 368 423 14,500 -1,941 Descending Minneapolis Center
Fri 12:48:02 PM 46.4058 -91.6558 328° Northwest 363 418 12,900 -1,544 Descending Minneapolis Center
Fri 12:49:04 PM 46.4892 -91.7339 327° Northwest 357 411 11,000 -1,872 Descending Minneapolis Center
Fri 12:50:07 PM 46.5800 -91.8136 329° Northwest 324 373 9,000 -1,632 Descending Minneapolis Center
Fri 12:51:09 PM 46.6389 -91.8697 327° Northwest 269 310 7,600 -1,452 Descending Minneapolis Center
Fri 12:52:11 PM 46.7117 -91.9353 328° Northwest 260 299 6,000 -1,306 Descending Minneapolis Center
Fri 12:53:13 PM 46.7656 -91.9828 329° Northwest 246 283 4,900 -976 Descending Minneapolis Center
Fri 12:54:14 PM 46.8014 -92.0169 327° Northwest 223 257 4,000 -968 Descending Minneapolis Center
Fri 12:55:17 PM 46.8389 -92.0775 312° West 193 222 2,900 -960 Descending Minneapolis Center
Fri 12:56:19 PM 46.8406 -92.1319 273° West 154 177 2,000 -871 Descending Minneapolis Center
Fri 12:58:00 PM 46.8333 -92.1833 326° Northwest  Level FlightAware Approximate
Fri 01:05:00 PM 46.8421 -92.1936 326° Northwest  Level Estimated
Fri 01:06:00 PM 46.8421 -92.1936 326° Northwest  Level Estimated

Login

Don't have an account? Register now (free) for customized features, flight alerts, and more!